AFL1257 ZBAD-ZSPD
Flight info
| Callsign | AFL1257 |
|---|---|
| Flight time | 1h 31m |
| Altitude | 38100 |
| Route | ELKUR4K ELKUR W40 DOXAB/K0895S1130 W40 YQG/K0889S1160 W142 DALIM/K0891S1130 A593 DPX A470 DALNU W166 ZJ W167 SASAN R343 EKIMU |
| Aircraft | B77W/H-SDE1E2E3FGHIJ2J3J4J5M1RWXY/LB1D1 |
Departure
| Time | 2026-05-07 19:11 |
|---|---|
| Airport | Beijing Daxing International Airport (ZBAD) |
Arrival
| Time | 2026-05-07 20:43 |
|---|---|
| Airport | Shanghai Pudong International Airport (ZSPD) |
| Time | Latitude | Longitude | Altitude | Speed | Heading |
|---|---|---|---|---|---|
| 2026-05-07 18:20 | 39.50406 | 116.40408 | 113 ft | 0 kts | 233° |
| 2026-05-07 19:00 | 39.50418 | 116.40428 | 111 ft | 4 kts | 233° |
| 2026-05-07 19:00 | 39.50434 | 116.40455 | 112 ft | 2 kts | 233° |
| 2026-05-07 19:00 | 39.50449 | 116.40477 | 112 ft | 4 kts | 212° |
| 2026-05-07 19:01 | 39.50465 | 116.40486 | 110 ft | 4 kts | 169° |
| 2026-05-07 19:01 | 39.50480 | 116.40475 | 111 ft | 4 kts | 132° |
| 2026-05-07 19:01 | 39.50498 | 116.40449 | 110 ft | 4 kts | 133° |
| 2026-05-07 19:01 | 39.50510 | 116.40433 | 110 ft | 1 kts | 143° |
| 2026-05-07 19:04 | 39.50508 | 116.40436 | 113 ft | 0 kts | 143° |
| 2026-05-07 19:04 | 39.50477 | 116.40465 | 110 ft | 13 kts | 143° |
| 2026-05-07 19:04 | 39.50377 | 116.40563 | 109 ft | 19 kts | 146° |
| 2026-05-07 19:05 | 39.50292 | 116.40592 | 112 ft | 12 kts | 173° |
| 2026-05-07 19:05 | 39.50201 | 116.40606 | 112 ft | 15 kts | 173° |
| 2026-05-07 19:05 | 39.50141 | 116.40565 | 112 ft | 12 kts | 251° |
| 2026-05-07 19:05 | 39.50123 | 116.40404 | 112 ft | 21 kts | 263° |
| 2026-05-07 19:06 | 39.50106 | 116.40217 | 112 ft | 21 kts | 263° |
| 2026-05-07 19:06 | 39.49922 | 116.40134 | 112 ft | 17 kts | 173° |
| 2026-05-07 19:06 | 39.49807 | 116.40153 | 112 ft | 17 kts | 173° |
| 2026-05-07 19:07 | 39.49681 | 116.40174 | 111 ft | 21 kts | 173° |
| 2026-05-07 19:07 | 39.49516 | 116.40202 | 109 ft | 27 kts | 172° |
| 2026-05-07 19:07 | 39.49331 | 116.40229 | 112 ft | 24 kts | 173° |
| 2026-05-07 19:07 | 39.49202 | 116.40248 | 112 ft | 18 kts | 173° |
| 2026-05-07 19:08 | 39.49077 | 116.40264 | 112 ft | 18 kts | 174° |
| 2026-05-07 19:08 | 39.48951 | 116.40282 | 111 ft | 18 kts | 173° |
| 2026-05-07 19:08 | 39.48827 | 116.40301 | 112 ft | 17 kts | 173° |
| 2026-05-07 19:08 | 39.48778 | 116.40268 | 111 ft | 8 kts | 243° |
| 2026-05-07 19:09 | 39.48767 | 116.40197 | 112 ft | 8 kts | 261° |
| 2026-05-07 19:09 | 39.48760 | 116.40120 | 113 ft | 7 kts | 275° |
| 2026-05-07 19:09 | 39.48791 | 116.40094 | 112 ft | 6 kts | 343° |
| 2026-05-07 19:09 | 39.48808 | 116.40088 | 114 ft | 0 kts | 346° |
| 2026-05-07 19:10 | 39.48811 | 116.40087 | 114 ft | 0 kts | 347° |
| 2026-05-07 19:10 | 39.48875 | 116.40075 | 114 ft | 39 kts | 353° |
| 2026-05-07 19:10 | 39.49442 | 116.39982 | 111 ft | 124 kts | 353° |
| 2026-05-07 19:11 | 39.50526 | 116.39820 | 215 ft | 179 kts | 353° |
| 2026-05-07 19:11 | 39.51774 | 116.39649 | 925 ft | 180 kts | 352° |
| 2026-05-07 19:11 | 39.53051 | 116.39453 | 1689 ft | 187 kts | 352° |
| 2026-05-07 19:11 | 39.54342 | 116.39222 | 2436 ft | 193 kts | 351° |
| 2026-05-07 19:12 | 39.55745 | 116.38942 | 2783 ft | 219 kts | 351° |
| 2026-05-07 19:12 | 39.56792 | 116.38758 | 2972 ft | 239 kts | 352° |
| 2026-05-07 19:12 | 39.58501 | 116.38481 | 3687 ft | 250 kts | 353° |
| 2026-05-07 19:12 | 39.60252 | 116.38203 | 4325 ft | 254 kts | 353° |
| 2026-05-07 19:13 | 39.62018 | 116.37925 | 4861 ft | 257 kts | 352° |
| 2026-05-07 19:13 | 39.63812 | 116.37640 | 4899 ft | 263 kts | 352° |
| 2026-05-07 19:13 | 39.65616 | 116.37616 | 4898 ft | 260 kts | 12° |
| 2026-05-07 19:13 | 39.67231 | 116.38663 | 4909 ft | 264 kts | 39° |
| 2026-05-07 19:14 | 39.68346 | 116.40556 | 4912 ft | 268 kts | 62° |
| 2026-05-07 19:14 | 39.68816 | 116.42898 | 5046 ft | 270 kts | 82° |
| 2026-05-07 19:14 | 39.69006 | 116.45334 | 5820 ft | 275 kts | 81° |
| 2026-05-07 19:14 | 39.69221 | 116.47824 | 6702 ft | 280 kts | 81° |
| 2026-05-07 19:15 | 39.69194 | 116.50355 | 7409 ft | 289 kts | 103° |
| 2026-05-07 19:15 | 39.68250 | 116.52642 | 8183 ft | 297 kts | 133° |
| 2026-05-07 19:15 | 39.66519 | 116.54091 | 9029 ft | 300 kts | 164° |
| 2026-05-07 19:15 | 39.64467 | 116.54529 | 9769 ft | 302 kts | 176° |
| 2026-05-07 19:16 | 39.62344 | 116.54811 | 10379 ft | 315 kts | 176° |
| 2026-05-07 19:16 | 39.60065 | 116.55125 | 10632 ft | 342 kts | 175° |
| 2026-05-07 19:16 | 39.57681 | 116.55847 | 10779 ft | 367 kts | 155° |
| 2026-05-07 19:16 | 39.55613 | 116.57933 | 11130 ft | 388 kts | 127° |
| 2026-05-07 19:17 | 39.54129 | 116.60887 | 11741 ft | 396 kts | 119° |
| 2026-05-07 19:17 | 39.52678 | 116.63975 | 12635 ft | 405 kts | 120° |
| 2026-05-07 19:17 | 39.51168 | 116.67074 | 13716 ft | 410 kts | 121° |
| 2026-05-07 19:17 | 39.49617 | 116.70201 | 14651 ft | 416 kts | 121° |
| 2026-05-07 19:18 | 39.48027 | 116.73387 | 15511 ft | 425 kts | 121° |
| 2026-05-07 19:18 | 39.46303 | 116.76447 | 16209 ft | 431 kts | 133° |
| 2026-05-07 19:18 | 39.43852 | 116.78818 | 16967 ft | 440 kts | 155° |
| 2026-05-07 19:18 | 39.41007 | 116.80248 | 17781 ft | 442 kts | 162° |
| 2026-05-07 19:19 | 39.38121 | 116.81595 | 18568 ft | 450 kts | 161° |
| 2026-05-07 19:19 | 39.35138 | 116.83067 | 19296 ft | 458 kts | 161° |
| 2026-05-07 19:19 | 39.32176 | 116.84568 | 19973 ft | 466 kts | 161° |
| 2026-05-07 19:19 | 39.29139 | 116.86111 | 20637 ft | 474 kts | 161° |
| 2026-05-07 19:20 | 39.26036 | 116.87684 | 21306 ft | 482 kts | 161° |
| 2026-05-07 19:20 | 39.22884 | 116.89278 | 21965 ft | 490 kts | 161° |
| 2026-05-07 19:20 | 39.19698 | 116.90887 | 22610 ft | 497 kts | 161° |
| 2026-05-07 19:20 | 39.16447 | 116.92526 | 23250 ft | 505 kts | 161° |
| 2026-05-07 19:21 | 39.13160 | 116.94181 | 23846 ft | 512 kts | 161° |
| 2026-05-07 19:21 | 39.09822 | 116.95860 | 24419 ft | 517 kts | 162° |
| 2026-05-07 19:21 | 39.06464 | 116.97549 | 25050 ft | 520 kts | 162° |
| 2026-05-07 19:21 | 39.03078 | 116.99251 | 25676 ft | 523 kts | 162° |
| 2026-05-07 19:22 | 38.99680 | 117.00958 | 26251 ft | 527 kts | 162° |
| 2026-05-07 19:22 | 38.96246 | 117.02681 | 26795 ft | 531 kts | 162° |
| 2026-05-07 19:22 | 38.92784 | 117.04344 | 27274 ft | 530 kts | 167° |
| 2026-05-07 19:22 | 38.89168 | 117.05101 | 27604 ft | 524 kts | 186° |
| 2026-05-07 19:23 | 38.85663 | 117.04514 | 28131 ft | 508 kts | 204° |
| 2026-05-07 19:23 | 38.82468 | 117.02801 | 28742 ft | 491 kts | 218° |
| 2026-05-07 19:23 | 38.79676 | 117.00379 | 29272 ft | 481 kts | 227° |
| 2026-05-07 19:23 | 38.77219 | 116.97507 | 29691 ft | 473 kts | 236° |
| 2026-05-07 19:24 | 38.75371 | 116.94134 | 30099 ft | 455 kts | 250° |
| 2026-05-07 19:24 | 38.73942 | 116.90521 | 30515 ft | 454 kts | 251° |
| 2026-05-07 19:24 | 38.72525 | 116.86940 | 31221 ft | 448 kts | 251° |
| 2026-05-07 19:24 | 38.71095 | 116.83426 | 32017 ft | 440 kts | 250° |
| 2026-05-07 19:25 | 38.69666 | 116.79997 | 32790 ft | 433 kts | 250° |
| 2026-05-07 19:25 | 38.68243 | 116.76622 | 33468 ft | 428 kts | 249° |
| 2026-05-07 19:25 | 38.66823 | 116.73291 | 34096 ft | 423 kts | 247° |
| 2026-05-07 19:25 | 38.64975 | 116.70271 | 34399 ft | 444 kts | 232° |
| 2026-05-07 19:26 | 38.62434 | 116.67886 | 34680 ft | 463 kts | 220° |
| 2026-05-07 19:26 | 38.59469 | 116.66113 | 35011 ft | 479 kts | 208° |
| 2026-05-07 19:26 | 38.56128 | 116.65247 | 35361 ft | 499 kts | 195° |
| 2026-05-07 19:26 | 38.52658 | 116.64900 | 35722 ft | 502 kts | 193° |
| 2026-05-07 19:27 | 38.49171 | 116.64646 | 36048 ft | 502 kts | 193° |
| 2026-05-07 19:27 | 38.45688 | 116.64366 | 36424 ft | 499 kts | 194° |
| 2026-05-07 19:27 | 38.42236 | 116.64022 | 36799 ft | 496 kts | 195° |
| 2026-05-07 19:27 | 38.38795 | 116.63629 | 37134 ft | 495 kts | 196° |
| 2026-05-07 19:28 | 38.35374 | 116.63224 | 37447 ft | 495 kts | 196° |
| 2026-05-07 19:28 | 38.31909 | 116.63001 | 37745 ft | 504 kts | 189° |
| 2026-05-07 19:28 | 38.28373 | 116.63283 | 38037 ft | 514 kts | 183° |
| 2026-05-07 19:28 | 38.24853 | 116.63990 | 38200 ft | 525 kts | 177° |
| 2026-05-07 19:29 | 38.17721 | 116.66637 | 38245 ft | 536 kts | 171° |
| 2026-05-07 19:29 | 38.10652 | 116.69392 | 38241 ft | 527 kts | 173° |
| 2026-05-07 19:30 | 38.03633 | 116.72027 | 38245 ft | 525 kts | 173° |
| 2026-05-07 19:30 | 37.96643 | 116.74692 | 38247 ft | 524 kts | 173° |
| 2026-05-07 19:31 | 37.89656 | 116.77354 | 38256 ft | 524 kts | 173° |
| 2026-05-07 19:31 | 37.82654 | 116.80011 | 38256 ft | 525 kts | 173° |
| 2026-05-07 19:32 | 37.75654 | 116.82660 | 38260 ft | 527 kts | 173° |
| 2026-05-07 19:32 | 37.68612 | 116.85320 | 38258 ft | 528 kts | 173° |
| 2026-05-07 19:33 | 37.61623 | 116.87955 | 38254 ft | 528 kts | 174° |
| 2026-05-07 19:33 | 37.54583 | 116.90605 | 38257 ft | 528 kts | 174° |
| 2026-05-07 19:34 | 37.47545 | 116.93249 | 38256 ft | 527 kts | 174° |
| 2026-05-07 19:34 | 37.40513 | 116.95885 | 38259 ft | 526 kts | 174° |
| 2026-05-07 19:35 | 37.33505 | 116.98507 | 38262 ft | 525 kts | 174° |
| 2026-05-07 19:35 | 37.26524 | 117.01334 | 38259 ft | 531 kts | 170° |
| 2026-05-07 19:36 | 37.19632 | 117.04641 | 38274 ft | 530 kts | 170° |
| 2026-05-07 19:36 | 37.12732 | 117.07886 | 38267 ft | 529 kts | 170° |
| 2026-05-07 19:37 | 37.05842 | 117.11086 | 38277 ft | 528 kts | 171° |
| 2026-05-07 19:37 | 36.98956 | 117.14287 | 38273 ft | 527 kts | 171° |
| 2026-05-07 19:38 | 36.92087 | 117.17482 | 38282 ft | 527 kts | 171° |
| 2026-05-07 19:38 | 36.85194 | 117.20315 | 38279 ft | 512 kts | 179° |
| 2026-05-07 19:39 | 36.78280 | 117.21584 | 38297 ft | 494 kts | 189° |
| 2026-05-07 19:39 | 36.71516 | 117.21596 | 38298 ft | 484 kts | 194° |
| 2026-05-07 19:40 | 36.64766 | 117.21475 | 38295 ft | 486 kts | 193° |
| 2026-05-07 19:40 | 36.57997 | 117.21412 | 38301 ft | 487 kts | 193° |
| 2026-05-07 19:41 | 36.51209 | 117.21371 | 38298 ft | 488 kts | 193° |
| 2026-05-07 19:41 | 36.44435 | 117.21414 | 38302 ft | 495 kts | 188° |
| 2026-05-07 19:42 | 36.37502 | 117.22757 | 38295 ft | 516 kts | 176° |
| 2026-05-07 19:42 | 36.30577 | 117.25345 | 38303 ft | 520 kts | 173° |
| 2026-05-07 19:43 | 36.23690 | 117.28015 | 38299 ft | 518 kts | 174° |
| 2026-05-07 19:43 | 36.16794 | 117.30602 | 38300 ft | 516 kts | 174° |
| 2026-05-07 19:44 | 36.09950 | 117.33126 | 38306 ft | 515 kts | 174° |
| 2026-05-07 19:44 | 36.03074 | 117.35663 | 38308 ft | 515 kts | 174° |
| 2026-05-07 19:45 | 35.96202 | 117.38207 | 38297 ft | 515 kts | 174° |
| 2026-05-07 19:45 | 35.89349 | 117.40775 | 38302 ft | 515 kts | 174° |
| 2026-05-07 19:46 | 35.82496 | 117.43344 | 38304 ft | 515 kts | 174° |
| 2026-05-07 19:46 | 35.75632 | 117.45908 | 38308 ft | 515 kts | 174° |
| 2026-05-07 19:47 | 35.68766 | 117.48466 | 38316 ft | 515 kts | 174° |
| 2026-05-07 19:47 | 35.61907 | 117.51015 | 38311 ft | 515 kts | 174° |
| 2026-05-07 19:48 | 35.55086 | 117.53546 | 38314 ft | 515 kts | 174° |
| 2026-05-07 19:48 | 35.48174 | 117.56107 | 38321 ft | 516 kts | 174° |
| 2026-05-07 19:49 | 35.41301 | 117.58649 | 38322 ft | 516 kts | 174° |
| 2026-05-07 19:49 | 35.34430 | 117.61186 | 38316 ft | 515 kts | 174° |
| 2026-05-07 19:50 | 35.27607 | 117.63701 | 38314 ft | 515 kts | 174° |
| 2026-05-07 19:50 | 35.20744 | 117.66226 | 38314 ft | 515 kts | 174° |
| 2026-05-07 19:51 | 35.13878 | 117.68748 | 38325 ft | 515 kts | 174° |
| 2026-05-07 19:51 | 35.07011 | 117.71265 | 38321 ft | 515 kts | 174° |
| 2026-05-07 19:52 | 35.00142 | 117.73780 | 38315 ft | 516 kts | 173° |
| 2026-05-07 19:52 | 34.93270 | 117.76296 | 38315 ft | 516 kts | 174° |
| 2026-05-07 19:53 | 34.86388 | 117.78812 | 38314 ft | 516 kts | 174° |
| 2026-05-07 19:53 | 34.79507 | 117.81328 | 38305 ft | 517 kts | 174° |
| 2026-05-07 19:54 | 34.72609 | 117.83814 | 38319 ft | 517 kts | 174° |
| 2026-05-07 19:54 | 34.65703 | 117.86289 | 38318 ft | 517 kts | 174° |
| 2026-05-07 19:55 | 34.58792 | 117.88767 | 38317 ft | 518 kts | 174° |
| 2026-05-07 19:55 | 34.51891 | 117.91241 | 38316 ft | 518 kts | 174° |
| 2026-05-07 19:56 | 34.45018 | 117.93701 | 38333 ft | 518 kts | 174° |
| 2026-05-07 19:56 | 34.38111 | 117.96168 | 38314 ft | 517 kts | 174° |
| 2026-05-07 19:57 | 34.31161 | 117.98647 | 38304 ft | 517 kts | 174° |
| 2026-05-07 19:57 | 34.24305 | 118.01102 | 38316 ft | 518 kts | 174° |
| 2026-05-07 19:58 | 34.17408 | 118.03621 | 38305 ft | 518 kts | 174° |
| 2026-05-07 19:58 | 34.10520 | 118.06136 | 38303 ft | 517 kts | 174° |
| 2026-05-07 19:59 | 34.03626 | 118.08641 | 38310 ft | 517 kts | 174° |
| 2026-05-07 19:59 | 33.96734 | 118.11143 | 38310 ft | 518 kts | 173° |
| 2026-05-07 20:00 | 33.89819 | 118.13663 | 38308 ft | 518 kts | 173° |
| 2026-05-07 20:00 | 33.84097 | 118.15876 | 38304 ft | 525 kts | 168° |
| 2026-05-07 20:01 | 33.77454 | 118.19811 | 38312 ft | 541 kts | 156° |
| 2026-05-07 20:01 | 33.71203 | 118.24960 | 38319 ft | 546 kts | 153° |
| 2026-05-07 20:02 | 33.65007 | 118.30241 | 38310 ft | 545 kts | 153° |
| 2026-05-07 20:02 | 33.58805 | 118.35441 | 38307 ft | 543 kts | 153° |
| 2026-05-07 20:03 | 33.52583 | 118.40588 | 38309 ft | 542 kts | 154° |
| 2026-05-07 20:03 | 33.46368 | 118.45714 | 38304 ft | 541 kts | 154° |
| 2026-05-07 20:04 | 33.40175 | 118.50821 | 38300 ft | 540 kts | 154° |
| 2026-05-07 20:04 | 33.34000 | 118.55906 | 38299 ft | 538 kts | 154° |
| 2026-05-07 20:05 | 33.27838 | 118.60973 | 38304 ft | 537 kts | 154° |
| 2026-05-07 20:05 | 33.21682 | 118.66025 | 38304 ft | 536 kts | 154° |
| 2026-05-07 20:06 | 33.15575 | 118.71069 | 38302 ft | 536 kts | 153° |
| 2026-05-07 20:06 | 33.09456 | 118.76159 | 38307 ft | 536 kts | 153° |
| 2026-05-07 20:07 | 33.03336 | 118.81238 | 38307 ft | 535 kts | 153° |
| 2026-05-07 20:07 | 32.97220 | 118.86296 | 38300 ft | 535 kts | 153° |
| 2026-05-07 20:08 | 32.91101 | 118.91348 | 38302 ft | 535 kts | 153° |
| 2026-05-07 20:08 | 32.84981 | 118.96393 | 38298 ft | 535 kts | 153° |
| 2026-05-07 20:09 | 32.78910 | 119.01419 | 38300 ft | 535 kts | 153° |
| 2026-05-07 20:10 | 32.69759 | 119.09019 | 38299 ft | 535 kts | 153° |
| 2026-05-07 20:10 | 32.63657 | 119.14074 | 38284 ft | 535 kts | 153° |
| 2026-05-07 20:11 | 32.57545 | 119.19124 | 38298 ft | 535 kts | 153° |
| 2026-05-07 20:11 | 32.51440 | 119.24159 | 38292 ft | 535 kts | 153° |
| 2026-05-07 20:12 | 32.45318 | 119.29200 | 38295 ft | 535 kts | 153° |
| 2026-05-07 20:12 | 32.39208 | 119.34223 | 38289 ft | 535 kts | 153° |
| 2026-05-07 20:13 | 32.33092 | 119.39242 | 38292 ft | 535 kts | 153° |
| 2026-05-07 20:13 | 32.26972 | 119.44257 | 38293 ft | 535 kts | 153° |
| 2026-05-07 20:14 | 32.20840 | 119.49273 | 38289 ft | 535 kts | 153° |
| 2026-05-07 20:14 | 32.14715 | 119.54275 | 38288 ft | 535 kts | 153° |
| 2026-05-07 20:15 | 32.08604 | 119.59259 | 38284 ft | 535 kts | 153° |
| 2026-05-07 20:15 | 32.02480 | 119.64246 | 38281 ft | 534 kts | 153° |
| 2026-05-07 20:16 | 31.96494 | 119.69460 | 38282 ft | 542 kts | 145° |
| 2026-05-07 20:16 | 31.91257 | 119.75940 | 38285 ft | 551 kts | 134° |
| 2026-05-07 20:17 | 31.86875 | 119.83394 | 38282 ft | 555 kts | 128° |
| 2026-05-07 20:17 | 31.82657 | 119.90941 | 38280 ft | 554 kts | 128° |
| 2026-05-07 20:18 | 31.78375 | 119.98454 | 38277 ft | 553 kts | 129° |
| 2026-05-07 20:18 | 31.74050 | 120.05927 | 38287 ft | 552 kts | 129° |
| 2026-05-07 20:19 | 31.69721 | 120.13389 | 38275 ft | 552 kts | 129° |
| 2026-05-07 20:19 | 31.65401 | 120.20838 | 38278 ft | 552 kts | 129° |
| 2026-05-07 20:20 | 31.61098 | 120.28314 | 38269 ft | 554 kts | 126° |
| 2026-05-07 20:20 | 31.59194 | 120.32235 | 38147 ft | 551 kts | 121° |
| 2026-05-07 20:20 | 31.57560 | 120.36292 | 37786 ft | 547 kts | 115° |
| 2026-05-07 20:20 | 31.56247 | 120.40474 | 37107 ft | 549 kts | 111° |
| 2026-05-07 20:21 | 31.55016 | 120.44716 | 36312 ft | 551 kts | 111° |
| 2026-05-07 20:21 | 31.53794 | 120.48985 | 35568 ft | 553 kts | 111° |
| 2026-05-07 20:21 | 31.52564 | 120.53250 | 34882 ft | 552 kts | 111° |
| 2026-05-07 20:21 | 31.51318 | 120.57503 | 34219 ft | 551 kts | 112° |
| 2026-05-07 20:22 | 31.50060 | 120.61735 | 33431 ft | 550 kts | 112° |
| 2026-05-07 20:22 | 31.48802 | 120.65929 | 32573 ft | 551 kts | 112° |
| 2026-05-07 20:22 | 31.47527 | 120.70159 | 31679 ft | 552 kts | 112° |
| 2026-05-07 20:22 | 31.46246 | 120.74402 | 30800 ft | 553 kts | 112° |
| 2026-05-07 20:23 | 31.44959 | 120.78664 | 29857 ft | 554 kts | 111° |
| 2026-05-07 20:23 | 31.43676 | 120.82917 | 29006 ft | 551 kts | 112° |
| 2026-05-07 20:23 | 31.42408 | 120.87124 | 28381 ft | 544 kts | 112° |
| 2026-05-07 20:23 | 31.41154 | 120.91277 | 27820 ft | 536 kts | 112° |
| 2026-05-07 20:24 | 31.39919 | 120.95358 | 27249 ft | 530 kts | 112° |
| 2026-05-07 20:24 | 31.38694 | 120.99403 | 26643 ft | 525 kts | 112° |
| 2026-05-07 20:24 | 31.37474 | 121.03418 | 26021 ft | 521 kts | 112° |
| 2026-05-07 20:24 | 31.36112 | 121.07303 | 25411 ft | 513 kts | 120° |
| 2026-05-07 20:25 | 31.34354 | 121.10889 | 24842 ft | 504 kts | 127° |
| 2026-05-07 20:25 | 31.32342 | 121.14146 | 24311 ft | 495 kts | 133° |
| 2026-05-07 20:25 | 31.30050 | 121.17104 | 23780 ft | 485 kts | 141° |
| 2026-05-07 20:25 | 31.27644 | 121.19833 | 23172 ft | 480 kts | 141° |
| 2026-05-07 20:26 | 31.25255 | 121.22540 | 22575 ft | 475 kts | 141° |
| 2026-05-07 20:26 | 31.22904 | 121.25216 | 22018 ft | 470 kts | 141° |
| 2026-05-07 20:26 | 31.20581 | 121.27875 | 21474 ft | 465 kts | 141° |
| 2026-05-07 20:26 | 31.18293 | 121.30506 | 20941 ft | 460 kts | 140° |
| 2026-05-07 20:27 | 31.16021 | 121.33124 | 20408 ft | 456 kts | 140° |
| 2026-05-07 20:27 | 31.13781 | 121.35706 | 19866 ft | 451 kts | 140° |
| 2026-05-07 20:27 | 31.11561 | 121.38265 | 19363 ft | 447 kts | 140° |
| 2026-05-07 20:27 | 31.09353 | 121.40807 | 18866 ft | 443 kts | 140° |
| 2026-05-07 20:28 | 31.07169 | 121.43320 | 18380 ft | 439 kts | 140° |
| 2026-05-07 20:28 | 31.05001 | 121.45811 | 17818 ft | 435 kts | 140° |
| 2026-05-07 20:28 | 31.02855 | 121.48275 | 17241 ft | 432 kts | 140° |
| 2026-05-07 20:28 | 31.00722 | 121.50721 | 16689 ft | 429 kts | 139° |
| 2026-05-07 20:29 | 30.98602 | 121.53153 | 16234 ft | 424 kts | 139° |
| 2026-05-07 20:29 | 30.96578 | 121.55481 | 16032 ft | 391 kts | 139° |
| 2026-05-07 20:29 | 30.94723 | 121.57619 | 15824 ft | 361 kts | 139° |
| 2026-05-07 20:29 | 30.93016 | 121.59579 | 15514 ft | 340 kts | 139° |
| 2026-05-07 20:30 | 30.91345 | 121.61490 | 15004 ft | 327 kts | 139° |
| 2026-05-07 20:30 | 30.89734 | 121.63326 | 14389 ft | 322 kts | 138° |
| 2026-05-07 20:30 | 30.88141 | 121.65141 | 13679 ft | 319 kts | 138° |
| 2026-05-07 20:30 | 30.86581 | 121.66920 | 12959 ft | 316 kts | 138° |
| 2026-05-07 20:31 | 30.85025 | 121.68695 | 12287 ft | 311 kts | 137° |
| 2026-05-07 20:31 | 30.83492 | 121.70445 | 11630 ft | 306 kts | 137° |
| 2026-05-07 20:31 | 30.81981 | 121.72169 | 10990 ft | 302 kts | 137° |
| 2026-05-07 20:31 | 30.80487 | 121.73874 | 10343 ft | 299 kts | 137° |
| 2026-05-07 20:32 | 30.79005 | 121.75564 | 9638 ft | 296 kts | 137° |
| 2026-05-07 20:32 | 30.77539 | 121.77235 | 8932 ft | 294 kts | 137° |
| 2026-05-07 20:32 | 30.76088 | 121.78887 | 8267 ft | 291 kts | 137° |
| 2026-05-07 20:32 | 30.74666 | 121.80520 | 7723 ft | 283 kts | 133° |
| 2026-05-07 20:33 | 30.73664 | 121.82480 | 7025 ft | 288 kts | 103° |
| 2026-05-07 20:33 | 30.73572 | 121.84770 | 6605 ft | 289 kts | 76° |
| 2026-05-07 20:33 | 30.74122 | 121.86975 | 6417 ft | 281 kts | 68° |
| 2026-05-07 20:33 | 30.74741 | 121.89110 | 6221 ft | 277 kts | 68° |
| 2026-05-07 20:34 | 30.75343 | 121.91212 | 6049 ft | 271 kts | 68° |
| 2026-05-07 20:34 | 30.76028 | 121.93189 | 5759 ft | 254 kts | 51° |
| 2026-05-07 20:34 | 30.77284 | 121.94533 | 5411 ft | 245 kts | 25° |
| 2026-05-07 20:34 | 30.78921 | 121.95110 | 4946 ft | 247 kts | 5° |
| 2026-05-07 20:35 | 30.80579 | 121.95019 | 4487 ft | 234 kts | 347° |
| 2026-05-07 20:35 | 30.82111 | 121.94482 | 3923 ft | 227 kts | 343° |
| 2026-05-07 20:35 | 30.83623 | 121.93888 | 3564 ft | 229 kts | 344° |
| 2026-05-07 20:35 | 30.85116 | 121.93294 | 3375 ft | 223 kts | 344° |
| 2026-05-07 20:36 | 30.86525 | 121.92743 | 3363 ft | 207 kts | 344° |
| 2026-05-07 20:36 | 30.87872 | 121.92225 | 3164 ft | 204 kts | 345° |
| 2026-05-07 20:36 | 30.89209 | 121.91722 | 2915 ft | 204 kts | 346° |
| 2026-05-07 20:36 | 30.90533 | 121.91224 | 2814 ft | 195 kts | 346° |
| 2026-05-07 20:37 | 30.91787 | 121.90751 | 2589 ft | 187 kts | 346° |
| 2026-05-07 20:37 | 30.92996 | 121.90297 | 2380 ft | 178 kts | 346° |
| 2026-05-07 20:37 | 30.94136 | 121.89867 | 2167 ft | 165 kts | 346° |
| 2026-05-07 20:37 | 30.95210 | 121.89463 | 2067 ft | 161 kts | 347° |
| 2026-05-07 20:38 | 30.96275 | 121.89064 | 2036 ft | 162 kts | 346° |
| 2026-05-07 20:38 | 30.97363 | 121.88654 | 2012 ft | 167 kts | 346° |
| 2026-05-07 20:38 | 30.98462 | 121.88240 | 1991 ft | 166 kts | 346° |
| 2026-05-07 20:38 | 30.99555 | 121.87828 | 1983 ft | 165 kts | 346° |
| 2026-05-07 20:39 | 31.00646 | 121.87416 | 1983 ft | 164 kts | 346° |
| 2026-05-07 20:39 | 31.01728 | 121.87008 | 1983 ft | 164 kts | 346° |
| 2026-05-07 20:39 | 31.02797 | 121.86604 | 1996 ft | 158 kts | 347° |
| 2026-05-07 20:39 | 31.03827 | 121.86216 | 1914 ft | 155 kts | 346° |
| 2026-05-07 20:40 | 31.04822 | 121.85840 | 1692 ft | 144 kts | 346° |
| 2026-05-07 20:40 | 31.05747 | 121.85492 | 1490 ft | 136 kts | 348° |
| 2026-05-07 20:40 | 31.06633 | 121.85154 | 1327 ft | 134 kts | 347° |
| 2026-05-07 20:40 | 31.07532 | 121.84802 | 1144 ft | 137 kts | 346° |
| 2026-05-07 20:41 | 31.08443 | 121.84461 | 955 ft | 137 kts | 347° |
| 2026-05-07 20:41 | 31.09345 | 121.84125 | 767 ft | 135 kts | 344° |
| 2026-05-07 20:41 | 31.10249 | 121.83789 | 634 ft | 138 kts | 346° |
| 2026-05-07 20:41 | 31.11182 | 121.83440 | 421 ft | 147 kts | 344° |
| 2026-05-07 20:42 | 31.12134 | 121.83079 | 238 ft | 150 kts | 344° |
| 2026-05-07 20:42 | 31.13126 | 121.82708 | 52 ft | 141 kts | 344° |
| 2026-05-07 20:42 | 31.13963 | 121.82394 | 26 ft | 115 kts | 341° |
| 2026-05-07 20:42 | 31.14600 | 121.82151 | 29 ft | 72 kts | 342° |
| 2026-05-07 20:43 | 31.14928 | 121.82021 | 29 ft | 32 kts | 335° |
| 2026-05-07 20:43 | 31.15103 | 121.81877 | 27 ft | 24 kts | 311° |
| 2026-05-07 20:43 | 31.15215 | 121.81733 | 27 ft | 24 kts | 313° |
| 2026-05-07 20:43 | 31.15335 | 121.81610 | 28 ft | 20 kts | 329° |
| 2026-05-07 20:44 | 31.15457 | 121.81555 | 28 ft | 16 kts | 342° |
| 2026-05-07 20:44 | 31.15503 | 121.81483 | 28 ft | 11 kts | 261° |
| 2026-05-07 20:44 | 31.15480 | 121.81397 | 28 ft | 11 kts | 252° |
| 2026-05-07 20:44 | 31.15454 | 121.81301 | 26 ft | 13 kts | 252° |
| 2026-05-07 20:45 | 31.15426 | 121.81197 | 27 ft | 14 kts | 252° |
| 2026-05-07 20:45 | 31.15397 | 121.81092 | 27 ft | 14 kts | 252° |
| 2026-05-07 20:45 | 31.15368 | 121.80986 | 27 ft | 14 kts | 252° |
| 2026-05-07 20:45 | 31.15339 | 121.80886 | 27 ft | 12 kts | 240° |
| 2026-05-07 20:46 | 31.15266 | 121.80871 | 28 ft | 12 kts | 162° |
| 2026-05-07 20:46 | 31.15185 | 121.80902 | 28 ft | 12 kts | 162° |
| 2026-05-07 20:46 | 31.15103 | 121.80932 | 28 ft | 13 kts | 162° |
| 2026-05-07 20:46 | 31.15019 | 121.80964 | 28 ft | 13 kts | 162° |
| 2026-05-07 20:47 | 31.14962 | 121.80985 | 28 ft | 0 kts | 162° |
| 2026-05-07 20:47 | 31.14956 | 121.80987 | 28 ft | 2 kts | 167° |
| 2026-05-07 20:47 | 31.14943 | 121.80983 | 28 ft | 4 kts | 201° |
| 2026-05-07 20:47 | 31.14925 | 121.80951 | 28 ft | 4 kts | 245° |
| 2026-05-07 20:48 | 31.14917 | 121.80927 | 28 ft | 3 kts | 251° |
| 2026-05-07 20:48 | 31.14913 | 121.80911 | 28 ft | 0 kts | 252° |
| 2026-05-07 20:48 | 31.14911 | 121.80905 | 28 ft | 1 kts | 252° |
| 2026-05-07 20:48 | 31.14911 | 121.80904 | 28 ft | 0 kts | 252° |